Time;durP1;ratioP1;P1;durP2;ratioP2;P2;SDS_P1;SDS_P2;PMS_P1;PMS_P2;Temp;Humidity;BMP_temperature;BMP_pressure;BME280_temperature;BME280_humidity;BME280_pressure;Samples;Min_cycle;Max_cycle;Signal;HPM_P1;HPM_P2
2023/07/30 00:00:39;;;;;;;1.77;1.63;;;;;;;21.44;61.56;97401.84;6196981;28;20231;-45
2023/07/30 00:03:41;;;;;;;3.27;2.20;;;;;;;21.36;63.42;97406.94;6195851;28;20225;-46
2023/07/30 00:06:43;;;;;;;2.83;2.10;;;;;;;21.22;64.46;97403.53;6196822;28;20242;-47
2023/07/30 00:09:46;;;;;;;2.03;1.90;;;;;;;21.18;63.96;97404.50;6199556;28;20341;-46
2023/07/30 00:12:48;;;;;;;2.50;1.70;;;;;;;21.08;64.99;97394.75;6183097;28;20228;-50
2023/07/30 00:15:50;;;;;;;2.00;1.80;;;;;;;21.06;64.30;97392.38;6187662;28;20225;-51
2023/07/30 00:18:53;;;;;;;3.70;1.90;;;;;;;21.02;65.30;97404.94;6194741;28;20242;-49
2023/07/30 00:21:55;;;;;;;2.63;1.57;;;;;;;20.86;65.23;97382.16;6194051;28;20288;-51
2023/07/30 00:24:58;;;;;;;1.50;1.40;;;;;;;20.87;65.99;97410.81;6192233;28;20290;-49
2023/07/30 00:28:00;;;;;;;2.07;1.70;;;;;;;20.96;65.12;97405.44;6193955;28;20300;-49
2023/07/30 00:31:02;;;;;;;1.67;1.50;;;;;;;20.78;66.69;97404.56;6176930;28;20306;-51
2023/07/30 00:34:05;;;;;;;2.37;1.70;;;;;;;20.66;66.56;97401.69;6196199;28;20224;-51
2023/07/30 00:37:07;;;;;;;1.57;1.47;;;;;;;20.66;66.56;97399.78;6185707;28;20241;-49
2023/07/30 00:40:10;;;;;;;2.13;1.93;;;;;;;20.63;66.59;97392.28;6193337;28;20720;-48
2023/07/30 00:43:12;;;;;;;1.60;1.50;;;;;;;20.67;65.66;97387.03;6197537;28;20255;-49
2023/07/30 00:46:15;;;;;;;2.03;1.80;;;;;;;20.51;65.88;97370.44;6181022;28;20702;-48
2023/07/30 00:49:17;;;;;;;1.57;1.47;;;;;;;20.61;66.53;97370.94;6176933;28;20989;-51
2023/07/30 00:52:21;;;;;;;1.60;1.50;;;;;;;20.60;67.44;97369.34;6195238;28;20375;-51
2023/07/30 00:55:23;;;;;;;2.10;1.60;;;;;;;20.59;67.05;97381.31;6196171;28;20244;-49
2023/07/30 00:58:27;;;;;;;1.50;1.40;;;;;;;20.55;66.85;97380.31;6194122;28;20239;-51
2023/07/30 01:01:34;;;;;;;1.47;1.37;;;;;;;20.58;66.79;97373.47;6195352;28;20232;-50
2023/07/30 01:04:37;;;;;;;1.70;1.53;;;;;;;20.54;67.19;97367.09;6174379;28;20728;-48
2023/07/30 01:07:39;;;;;;;2.17;1.77;;;;;;;20.33;67.79;97353.31;6197570;28;20228;-50
2023/07/30 01:10:42;;;;;;;2.73;2.53;;;;;;;20.35;68.55;97365.44;6177380;28;20232;-47
2023/07/30 01:13:45;;;;;;;2.23;2.03;;;;;;;20.29;69.76;97372.06;6181903;28;20221;-50
2023/07/30 01:16:49;;;;;;;1.97;1.77;;;;;;;20.22;71.16;97371.72;6179893;28;20229;-52
2023/07/30 01:19:55;;;;;;;1.80;1.70;;;;;;;20.09;70.93;97364.50;6197434;28;20370;-50
2023/07/30 01:23:00;;;;;;;1.97;1.77;;;;;;;19.97;72.19;97356.97;6174137;28;20233;-52
2023/07/30 01:26:08;;;;;;;1.70;1.60;;;;;;;19.90;73.17;97369.34;6195843;28;20245;-49
2023/07/30 01:29:21;;;;;;;3.10;1.97;;;;;;;19.78;73.94;97368.00;6193463;28;20237;-49
2023/07/30 01:32:28;;;;;;;2.43;1.90;;;;;;;19.77;73.10;97377.22;6177055;28;20222;-48
2023/07/30 01:35:32;;;;;;;1.77;1.60;;;;;;;19.75;73.24;97376.75;6195896;28;20225;-51
2023/07/30 01:38:35;;;;;;;2.30;1.83;;;;;;;19.72;73.04;97368.44;6200472;28;20220;-50
2023/07/30 01:41:37;;;;;;;2.13;1.83;;;;;;;19.70;73.45;97363.34;6176656;28;20251;-47
2023/07/30 01:44:40;;;;;;;1.60;1.50;;;;;;;19.56;72.83;97357.19;6182789;28;20710;-51
2023/07/30 01:47:42;;;;;;;1.67;1.57;;;;;;;19.47;73.22;97343.63;6185816;28;21178;-50
2023/07/30 01:50:47;;;;;;;1.60;1.50;;;;;;;19.58;73.76;97363.88;6193022;28;20264;-51
2023/07/30 01:53:49;;;;;;;1.40;1.30;;;;;;;19.58;73.22;97369.28;6196998;28;20320;-49
2023/07/30 01:56:51;;;;;;;1.90;1.50;;;;;;;19.55;73.29;97369.88;6191953;28;20240;-51
2023/07/30 01:59:54;;;;;;;1.53;1.43;;;;;;;19.54;72.80;97370.19;6190087;28;20255;-49
2023/07/30 02:02:56;;;;;;;1.73;1.63;;;;;;;19.53;73.20;97374.81;6187711;28;20240;-50
2023/07/30 02:05:59;;;;;;;1.93;1.83;;;;;;;19.38;73.37;97352.78;6194372;28;20232;-48
2023/07/30 02:09:02;;;;;;;1.83;1.73;;;;;;;19.46;73.46;97360.94;6194326;28;20236;-47
2023/07/30 02:12:04;;;;;;;1.57;1.47;;;;;;;19.42;73.77;97353.75;6197117;28;20220;-49
2023/07/30 02:15:07;;;;;;;2.07;1.87;;;;;;;19.42;74.36;97356.47;6178343;28;20217;-51
2023/07/30 02:18:10;;;;;;;2.13;1.93;;;;;;;19.55;71.47;97352.88;6199204;28;20220;-49
2023/07/30 02:21:13;;;;;;;2.37;2.17;;;;;;;19.62;72.89;97356.00;6196104;28;20234;-48
2023/07/30 02:24:15;;;;;;;2.47;2.07;;;;;;;19.64;72.46;97344.88;6194309;28;20205;-47
2023/07/30 02:27:17;;;;;;;2.37;1.57;;;;;;;20.08;66.54;97350.19;6182291;28;20236;-50
2023/07/30 02:30:19;;;;;;;1.60;1.50;;;;;;;20.34;65.63;97339.50;6197462;28;20367;-51
2023/07/30 02:33:21;;;;;;;2.10;1.60;;;;;;;20.51;65.03;97340.69;6199016;28;20271;-50
2023/07/30 02:36:24;;;;;;;1.93;1.60;;;;;;;20.56;64.34;97356.78;6190069;28;20228;-50
2023/07/30 02:39:26;;;;;;;1.90;1.70;;;;;;;20.64;64.56;97361.41;6197662;28;20358;-48
2023/07/30 02:42:29;;;;;;;5.20;1.97;;;;;;;20.58;64.92;97357.25;6198570;28;20229;-45
2023/07/30 02:45:31;;;;;;;2.30;1.70;;;;;;;20.49;65.97;97359.13;6181167;28;20221;-45
2023/07/30 02:48:33;;;;;;;1.97;1.77;;;;;;;20.44;66.45;97356.53;6179071;28;20232;-44
2023/07/30 02:51:35;;;;;;;2.57;2.10;;;;;;;20.36;66.84;97352.69;6192197;28;20224;-45
2023/07/30 02:54:38;;;;;;;2.50;2.30;;;;;;;20.21;67.10;97340.38;6199725;28;20254;-44
2023/07/30 02:57:40;;;;;;;2.90;2.50;;;;;;;20.10;68.10;97331.75;6180022;28;20237;-46
2023/07/30 03:00:43;;;;;;;3.33;2.50;;;;;;;20.10;68.41;97347.19;6196160;28;20240;-45
2023/07/30 03:03:45;;;;;;;2.10;1.57;;;;;;;20.09;68.77;97350.97;6186775;28;20566;-44
2023/07/30 03:06:47;;;;;;;4.63;1.83;;;;;;;20.00;68.80;97344.72;6196907;28;20229;-44
2023/07/30 03:09:49;;;;;;;1.63;1.53;;;;;;;19.95;69.25;97339.47;6195716;28;20376;-45
2023/07/30 03:12:51;;;;;;;1.60;1.50;;;;;;;19.89;69.21;97346.91;6194443;28;20286;-43
2023/07/30 03:15:54;;;;;;;2.70;1.97;;;;;;;19.92;68.93;97337.41;6195100;28;20283;-44
2023/07/30 03:18:56;;;;;;;1.73;1.63;;;;;;;20.08;67.59;97358.31;6175384;28;20601;-43
2023/07/30 03:21:58;;;;;;;4.17;1.67;;;;;;;20.20;67.48;97357.75;6194774;28;20264;-46
2023/07/30 03:25:01;;;;;;;2.03;1.87;;;;;;;20.23;67.37;97337.38;6180727;28;20224;-45
2023/07/30 03:28:03;;;;;;;1.80;1.70;;;;;;;20.19;68.37;97339.88;6199058;28;20272;-43
2023/07/30 03:31:05;;;;;;;3.80;1.83;;;;;;;20.17;68.24;97346.72;6174374;28;20773;-45
2023/07/30 03:34:08;;;;;;;4.83;2.10;;;;;;;20.19;66.72;97329.06;6195320;28;20263;-44
2023/07/30 03:37:10;;;;;;;2.83;2.23;;;;;;;20.27;66.69;97330.22;6178843;28;20638;-44
2023/07/30 03:40:13;;;;;;;2.10;1.90;;;;;;;20.28;67.32;97337.22;6178716;28;20248;-46
2023/07/30 03:43:15;;;;;;;2.20;2.00;;;;;;;20.11;67.47;97327.16;6187803;28;20640;-45
2023/07/30 03:46:18;;;;;;;1.73;1.63;;;;;;;20.20;68.05;97352.31;6184562;28;20243;-44
2023/07/30 03:49:20;;;;;;;4.47;3.13;;;;;;;20.16;68.57;97354.06;6187244;28;20233;-46
2023/07/30 03:52:22;;;;;;;2.27;2.07;;;;;;;20.12;69.17;97355.78;6177883;28;20313;-46
2023/07/30 03:55:25;;;;;;;2.10;1.90;;;;;;;20.06;69.31;97357.81;6195146;28;20315;-45
2023/07/30 03:58:27;;;;;;;1.97;1.77;;;;;;;19.99;69.31;97352.06;6190568;28;20273;-44
2023/07/30 04:01:30;;;;;;;2.67;2.03;;;;;;;19.96;70.46;97357.31;6195208;28;20746;-47
2023/07/30 04:04:32;;;;;;;2.00;1.80;;;;;;;19.88;70.77;97345.31;6195683;28;20235;-45
2023/07/30 04:07:34;;;;;;;2.50;2.10;;;;;;;19.90;70.89;97347.72;6180502;28;20236;-46
2023/07/30 04:10:39;;;;;;;1.80;1.70;;;;;;;19.72;71.33;97328.69;6198306;28;20307;-45
2023/07/30 04:13:42;;;;;;;1.80;1.60;;;;;;;19.77;71.39;97344.78;6200148;28;20259;-47
2023/07/30 04:16:46;;;;;;;2.47;1.70;;;;;;;19.84;71.40;97355.16;6164450;28;20244;-46
2023/07/30 04:19:49;;;;;;;1.80;1.70;;;;;;;19.72;71.01;97338.72;6191632;28;20770;-45
2023/07/30 04:22:52;;;;;;;2.97;2.03;;;;;;;19.88;72.10;97353.44;6182568;28;20236;-47
2023/07/30 04:25:54;;;;;;;1.87;1.77;;;;;;;19.84;70.88;97361.34;6159206;28;20259;-44
2023/07/30 04:29:00;;;;;;;4.70;1.50;;;;;;;19.98;70.08;97358.56;6174426;28;20233;-44
2023/07/30 04:32:03;;;;;;;2.20;2.00;;;;;;;20.03;70.66;97360.34;6194811;28;20236;-43
2023/07/30 04:35:07;;;;;;;2.00;1.80;;;;;;;20.05;70.31;97363.56;6179622;28;20718;-44
2023/07/30 04:38:09;;;;;;;1.57;1.47;;;;;;;20.04;70.80;97364.63;6192244;28;20229;-44
2023/07/30 04:41:12;;;;;;;1.50;1.37;;;;;;;20.02;70.74;97361.47;6176549;28;20237;-43
2023/07/30 04:44:20;;;;;;;2.33;1.63;;;;;;;19.98;71.88;97365.88;6183502;28;20236;-43
2023/07/30 04:47:22;;;;;;;1.50;1.40;;;;;;;19.95;72.36;97372.72;6180248;28;20247;-43
2023/07/30 04:50:24;;;;;;;2.23;1.87;;;;;;;19.91;72.76;97377.16;6192801;28;20762;-43
2023/07/30 04:53:27;;;;;;;1.90;1.70;;;;;;;19.90;73.51;97377.44;6175303;28;20244;-46
2023/07/30 04:56:29;;;;;;;1.93;1.70;;;;;;;19.89;73.16;97378.56;6192826;28;20238;-42
2023/07/30 04:59:33;;;;;;;1.90;1.70;;;;;;;19.89;73.87;97378.56;6190497;28;20260;-45
2023/07/30 05:02:35;;;;;;;1.90;1.80;;;;;;;19.86;74.17;97390.81;6190018;28;20232;-43
2023/07/30 05:05:38;;;;;;;1.87;1.70;;;;;;;19.86;74.85;97384.59;6189227;28;20224;-43
2023/07/30 05:08:40;;;;;;;1.80;1.47;;;;;;;19.77;75.44;97371.81;6195077;28;20291;-44
2023/07/30 05:11:42;;;;;;;1.60;1.50;;;;;;;19.82;76.00;97387.91;6180786;28;20228;-45
2023/07/30 05:14:44;;;;;;;1.80;1.70;;;;;;;19.63;75.46;97362.97;6200215;28;20259;-42
2023/07/30 05:17:46;;;;;;;1.73;1.63;;;;;;;19.75;75.76;97394.84;6183065;28;20797;-44
2023/07/30 05:20:49;;;;;;;1.57;1.47;;;;;;;19.73;75.85;97380.84;6193540;28;20235;-44
2023/07/30 05:23:51;;;;;;;1.70;1.60;;;;;;;19.58;76.10;97368.47;6199484;28;20236;-44
2023/07/30 05:26:53;;;;;;;2.77;1.67;;;;;;;19.69;76.79;97382.56;6199657;28;20221;-45
2023/07/30 05:29:55;;;;;;;1.87;1.67;;;;;;;19.67;76.82;97382.88;6195103;28;20390;-42
2023/07/30 05:32:57;;;;;;;2.10;1.70;;;;;;;19.65;76.91;97379.69;6199099;28;20228;-44
2023/07/30 05:36:00;;;;;;;2.43;1.80;;;;;;;19.61;77.24;97373.31;6197820;28;20328;-44
2023/07/30 05:39:02;;;;;;;2.17;1.97;;;;;;;19.62;77.67;97379.50;6197034;28;20721;-43
2023/07/30 05:42:05;;;;;;;1.70;1.60;;;;;;;19.57;77.04;97362.28;6194498;28;20212;-43
2023/07/30 05:45:08;;;;;;;2.07;1.77;;;;;;;19.65;77.35;97360.75;6198317;28;20724;-44
2023/07/30 05:48:10;;;;;;;2.03;1.83;;;;;;;19.72;73.14;97346.84;6181344;28;20669;-42
2023/07/30 05:51:12;;;;;;;1.60;1.50;;;;;;;19.76;70.40;97329.69;6200160;28;20220;-43
2023/07/30 05:54:14;;;;;;;2.27;1.83;;;;;;;20.15;70.08;97363.28;6195415;28;20240;-45
2023/07/30 05:57:17;;;;;;;2.20;1.40;;;;;;;20.26;70.21;97371.91;6197515;28;20247;-45
2023/07/30 06:00:19;;;;;;;1.93;1.73;;;;;;;20.49;66.66;97372.66;6195054;28;20654;-44
2023/07/30 06:03:21;;;;;;;2.60;1.83;;;;;;;20.56;67.62;97379.22;6185253;28;20681;-44
2023/07/30 06:06:27;;;;;;;1.80;1.60;;;;;;;20.53;69.55;97377.13;6195436;28;20267;-46
2023/07/30 06:09:29;;;;;;;1.77;1.67;;;;;;;20.60;68.13;97390.22;6197863;28;20789;-46
2023/07/30 06:12:32;;;;;;;2.77;1.57;;;;;;;20.59;68.36;97386.72;6200776;28;20229;-45
2023/07/30 06:15:34;;;;;;;2.60;2.03;;;;;;;20.46;71.28;97376.75;6197004;28;20228;-42
2023/07/30 06:18:37;;;;;;;1.70;1.60;;;;;;;20.51;72.40;97400.22;6199311;28;20227;-46
2023/07/30 06:21:39;;;;;;;3.87;1.90;;;;;;;20.46;72.83;97393.00;6191962;28;20315;-44
2023/07/30 06:24:41;;;;;;;3.07;2.60;;;;;;;20.32;70.55;97373.38;6199175;28;20221;-43
2023/07/30 06:28:01;;;;;;;1.93;1.80;;;;;;;20.49;69.97;97399.72;6195871;28;20237;-45
2023/07/30 06:31:03;;;;;;;1.70;1.60;;;;;;;20.42;69.08;97375.78;6198182;28;20221;-42
2023/07/30 06:34:06;;;;;;;2.07;1.60;;;;;;;20.57;68.54;97390.84;6198668;28;20711;-44
2023/07/30 06:37:08;;;;;;;1.60;1.50;;;;;;;20.63;67.89;97399.59;6198533;28;20225;-43
2023/07/30 06:40:10;;;;;;;1.83;1.73;;;;;;;20.56;68.29;97387.34;6192323;28;20233;-45
2023/07/30 06:43:12;;;;;;;1.50;1.40;;;;;;;20.64;68.22;97398.50;6189127;28;20356;-43
2023/07/30 06:46:15;;;;;;;1.53;1.43;;;;;;;20.75;66.56;97406.03;6195185;28;20236;-43
2023/07/30 06:49:17;;;;;;;1.80;1.70;;;;;;;20.95;65.58;97410.06;6199042;28;20378;-43
2023/07/30 06:52:20;;;;;;;1.93;1.73;;;;;;;20.80;66.55;97410.50;6196031;28;20319;-47
2023/07/30 06:55:22;;;;;;;1.70;1.50;;;;;;;20.61;67.55;97397.22;6196623;28;20331;-47
2023/07/30 06:58:24;;;;;;;2.27;1.70;;;;;;;20.64;68.73;97414.72;6178633;28;20705;-46
2023/07/30 07:01:27;;;;;;;1.50;1.30;;;;;;;20.60;69.02;97422.69;6188374;28;20585;-46
2023/07/30 07:04:29;;;;;;;1.67;1.37;;;;;;;20.57;69.54;97420.59;6201158;28;20245;-43
2023/07/30 07:07:31;;;;;;;1.47;1.30;;;;;;;20.46;69.49;97413.84;6198122;28;20220;-45
2023/07/30 07:10:34;;;;;;;2.73;1.40;;;;;;;20.34;70.65;97415.25;6199862;28;20263;-46
2023/07/30 07:13:36;;;;;;;1.60;1.50;;;;;;;20.41;69.66;97414.00;6198917;28;20274;-46
2023/07/30 07:16:38;;;;;;;1.70;1.60;;;;;;;20.35;69.84;97416.84;6195269;28;20224;-46
2023/07/30 07:19:40;;;;;;;1.67;1.50;;;;;;;20.14;70.66;97396.81;6193065;28;20240;-49
2023/07/30 07:22:43;;;;;;;1.53;1.40;;;;;;;20.05;70.79;97394.09;6198633;28;20252;-44
2023/07/30 07:25:45;;;;;;;2.27;1.53;;;;;;;20.21;71.02;97412.63;6197067;28;20744;-43
2023/07/30 07:28:47;;;;;;;1.63;1.53;;;;;;;20.07;72.34;97407.28;6199852;28;20239;-44
2023/07/30 07:31:49;;;;;;;1.83;1.73;;;;;;;20.03;72.45;97417.13;6198664;28;20231;-47
2023/07/30 07:34:52;;;;;;;1.90;1.60;;;;;;;20.16;71.27;97423.59;6197579;28;20237;-44
2023/07/30 07:37:54;;;;;;;2.13;1.80;;;;;;;19.96;71.73;97390.53;6169710;28;20236;-44
2023/07/30 07:40:56;;;;;;;1.87;1.70;;;;;;;20.06;72.56;97430.03;6191039;28;20232;-45
2023/07/30 07:43:58;;;;;;;2.87;1.87;;;;;;;20.01;72.95;97432.88;6193810;28;20231;-47
2023/07/30 07:47:01;;;;;;;1.70;1.60;;;;;;;20.00;72.00;97406.91;6194431;28;20236;-43
2023/07/30 07:50:04;;;;;;;2.80;1.73;;;;;;;20.10;71.88;97429.13;6179459;28;20236;-45
2023/07/30 07:53:06;;;;;;;2.93;1.40;;;;;;;20.18;70.49;97424.84;6183514;28;20232;-44
2023/07/30 07:56:09;;;;;;;2.07;1.70;;;;;;;20.20;71.34;97430.75;6197683;28;20233;-44
2023/07/30 07:59:12;;;;;;;1.73;1.63;;;;;;;20.18;71.53;97419.44;6195494;28;20224;-45
2023/07/30 08:02:14;;;;;;;1.80;1.50;;;;;;;20.12;70.52;97382.81;6198585;28;20232;-45
2023/07/30 08:05:16;;;;;;;1.67;1.30;;;;;;;20.32;71.46;97424.75;6181099;28;20239;-44
2023/07/30 08:08:18;;;;;;;1.40;1.13;;;;;;;20.21;70.59;97401.81;6192649;28;20235;-42
2023/07/30 08:11:21;;;;;;;1.87;1.67;;;;;;;20.41;70.12;97424.81;6197141;28;20224;-41
2023/07/30 08:14:23;;;;;;;1.73;1.50;;;;;;;20.45;70.85;97436.63;6196118;28;20228;-46
2023/07/30 08:17:25;;;;;;;1.63;1.40;;;;;;;20.52;70.28;97434.28;6195680;28;20308;-43
2023/07/30 08:20:28;;;;;;;1.47;1.37;;;;;;;20.80;70.70;97438.38;6198739;28;20236;-46
2023/07/30 08:23:30;;;;;;;1.30;1.20;;;;;;;20.91;70.63;97443.50;6179908;28;20322;-45
2023/07/30 08:26:32;;;;;;;1.60;1.50;;;;;;;21.00;71.38;97436.19;6198784;28;20568;-43
2023/07/30 08:29:34;;;;;;;2.50;1.60;;;;;;;21.09;69.57;97447.84;6199695;28;20236;-45
2023/07/30 08:32:41;;;;;;;1.30;1.20;;;;;;;21.10;69.85;97457.56;6197272;28;20776;-44
2023/07/30 08:35:43;;;;;;;1.30;1.20;;;;;;;21.11;70.28;97442.91;6192737;28;20239;-43
2023/07/30 08:38:45;;;;;;;1.40;1.30;;;;;;;21.19;68.03;97449.47;6189517;28;20261;-42
2023/07/30 08:41:48;;;;;;;1.30;1.20;;;;;;;21.48;66.92;97457.00;6199027;28;20245;-44
2023/07/30 08:44:50;;;;;;;1.20;1.00;;;;;;;21.45;66.15;97453.00;6190222;28;20718;-43
2023/07/30 08:47:52;;;;;;;1.27;1.17;;;;;;;21.54;66.36;97431.34;6199625;28;20268;-45
2023/07/30 08:50:56;;;;;;;1.50;1.40;;;;;;;21.72;66.33;97438.34;6191906;28;20723;-44
2023/07/30 08:54:00;;;;;;;1.17;1.07;;;;;;;22.01;65.88;97439.59;6203240;28;20260;-45
2023/07/30 08:57:03;;;;;;;1.53;1.20;;;;;;;22.13;65.99;97418.06;6193024;28;20230;-45
2023/07/30 09:00:08;;;;;;;1.43;1.17;;;;;;;22.55;61.83;97437.22;6198753;28;21108;-46
2023/07/30 09:03:17;;;;;;;1.73;1.23;;;;;;;22.49;61.12;97435.81;6179755;28;20232;-45
2023/07/30 09:06:19;;;;;;;1.10;1.00;;;;;;;22.54;63.61;97435.63;6171487;28;20351;-43
2023/07/30 09:09:22;;;;;;;1.30;1.20;;;;;;;22.48;63.86;97426.88;6190152;28;20237;-42
2023/07/30 09:12:42;;;;;;;1.40;1.30;;;;;;;22.55;64.42;97437.22;6187223;28;20609;-45
2023/07/30 09:15:48;;;;;;;1.40;1.30;;;;;;;22.51;62.76;97425.41;6198150;28;20324;-44
2023/07/30 09:18:50;;;;;;;1.60;1.30;;;;;;;22.57;63.16;97424.94;6178418;28;20232;-44
2023/07/30 09:21:53;;;;;;;1.77;1.20;;;;;;;22.81;60.58;97413.47;6196378;28;20236;-44
2023/07/30 09:24:57;;;;;;;1.30;1.20;;;;;;;22.70;61.72;97414.16;6188831;28;20228;-44
2023/07/30 09:27:59;;;;;;;1.43;1.20;;;;;;;22.83;61.96;97437.59;6191908;28;20240;-45
2023/07/30 09:31:03;;;;;;;1.10;1.00;;;;;;;22.77;60.26;97436.97;6193439;28;20737;-46
2023/07/30 09:34:25;;;;;;;1.80;1.00;;;;;;;22.88;58.74;97424.63;6191676;28;20728;-43
2023/07/30 09:37:27;;;;;;;1.07;0.90;;;;;;;22.99;58.72;97403.31;6190728;28;20228;-44
2023/07/30 09:40:35;;;;;;;0.80;0.80;;;;;;;23.01;61.53;97408.44;6201518;28;20781;-43
2023/07/30 09:43:37;;;;;;;0.90;0.90;;;;;;;23.21;59.69;97406.88;6194127;28;20327;-45
2023/07/30 09:46:44;;;;;;;1.40;0.90;;;;;;;23.29;55.81;97406.78;6195035;28;20283;-46
2023/07/30 09:49:47;;;;;;;2.53;0.90;;;;;;;23.25;57.09;97383.31;6199437;28;20245;-47
2023/07/30 09:52:49;;;;;;;1.30;1.20;;;;;;;23.38;55.61;97398.56;6197401;28;20237;-45
2023/07/30 09:55:52;;;;;;;1.00;0.90;;;;;;;23.21;56.21;97399.50;6192430;28;20243;-46
2023/07/30 09:58:54;;;;;;;0.70;0.70;;;;;;;23.21;57.57;97404.16;6201039;28;20589;-48
2023/07/30 10:01:58;;;;;;;1.30;1.20;;;;;;;23.42;53.88;97381.28;6199537;28;20228;-46
2023/07/30 10:05:01;;;;;;;1.10;1.00;;;;;;;23.41;56.56;97382.41;6201487;28;20248;-45
2023/07/30 10:08:11;;;;;;;1.60;1.00;;;;;;;23.57;55.85;97381.78;6199214;28;20236;-47
2023/07/30 10:11:15;;;;;;;1.05;0.90;;;;;;;23.70;53.23;97393.56;6198461;28;20332;-47
2023/07/30 10:14:23;;;;;;;0.90;0.90;;;;;;;23.51;56.30;97380.41;6202371;28;20603;-44
2023/07/30 10:17:25;;;;;;;1.05;0.82;;;;;;;23.37;55.16;97364.38;6193476;28;20244;-45
2023/07/30 10:20:31;;;;;;;1.27;1.15;;;;;;;23.35;55.99;97393.78;6197395;28;20351;-46
2023/07/30 10:23:34;;;;;;;1.25;1.15;;;;;;;23.29;57.25;97384.25;6198813;28;20294;-47
2023/07/30 10:26:37;;;;;;;1.10;0.98;;;;;;;23.43;57.73;97387.50;6195894;28;20237;-47
2023/07/30 10:29:41;;;;;;;0.95;0.90;;;;;;;23.55;58.05;97389.50;6204740;28;20244;-48
2023/07/30 10:32:55;;;;;;;1.10;1.00;;;;;;;23.62;57.87;97389.75;6199598;28;20740;-46
2023/07/30 10:35:58;;;;;;;1.00;0.88;;;;;;;23.63;57.46;97410.34;6195421;28;20319;-45
2023/07/30 10:39:16;;;;;;;1.52;1.10;;;;;;;23.83;53.15;97406.03;6196906;28;20221;-45
2023/07/30 10:42:18;;;;;;;1.55;1.15;;;;;;;23.65;54.91;97411.66;6203412;28;20685;-47
2023/07/30 10:45:26;;;;;;;1.35;1.20;;;;;;;23.51;55.17;97407.59;6200013;28;20221;-46
2023/07/30 10:48:36;;;;;;;1.48;0.90;;;;;;;23.39;55.58;97381.13;6197394;28;20237;-46
2023/07/30 10:51:39;;;;;;;1.30;1.10;;;;;;;23.17;56.56;97374.13;6192543;28;20229;-46
2023/07/30 10:54:42;;;;;;;2.35;1.13;;;;;;;23.30;56.43;97394.00;6201242;28;20232;-45
2023/07/30 10:57:46;;;;;;;1.10;1.00;;;;;;;23.35;56.44;97382.91;6194169;28;20232;-44
2023/07/30 11:00:49;;;;;;;1.23;1.13;;;;;;;23.46;56.71;97391.50;6201706;28;20238;-46
2023/07/30 11:03:52;;;;;;;1.50;1.00;;;;;;;23.49;56.38;97388.09;6195420;28;20229;-47
2023/07/30 11:06:54;;;;;;;0.98;0.90;;;;;;;23.39;56.46;97386.56;6197079;28;20319;-45
2023/07/30 11:10:01;;;;;;;1.48;1.10;;;;;;;23.41;56.55;97376.16;6191744;28;20243;-47
2023/07/30 11:13:03;;;;;;;2.15;0.93;;;;;;;23.41;56.21;97357.94;6199706;28;20237;-48
2023/07/30 11:16:07;;;;;;;1.20;1.02;;;;;;;23.68;55.62;97364.75;6194477;28;20552;-48
2023/07/30 11:19:11;;;;;;;1.10;1.00;;;;;;;24.03;53.71;97360.88;6194394;28;20248;-44
2023/07/30 11:22:14;;;;;;;1.10;1.00;;;;;;;24.13;55.75;97376.75;6197375;28;20710;-44
2023/07/30 11:25:17;;;;;;;1.20;1.10;;;;;;;23.77;55.36;97378.25;6192585;28;20247;-47
2023/07/30 11:28:39;;;;;;;1.73;1.58;;;;;;;23.41;57.61;97385.13;6200461;28;20298;-47
2023/07/30 11:31:43;;;;;;;1.25;1.15;;;;;;;23.23;58.31;97386.38;6194356;28;20606;-46
2023/07/30 11:34:46;;;;;;;0.98;0.98;;;;;;;22.81;60.13;97385.53;6196774;28;20239;-46
2023/07/30 11:37:48;;;;;;;1.30;1.20;;;;;;;22.62;60.87;97378.59;6195650;28;20240;-44
2023/07/30 11:40:51;;;;;;;1.20;1.10;;;;;;;22.47;61.33;97392.72;6198945;28;20224;-46
2023/07/30 11:43:54;;;;;;;1.00;1.00;;;;;;;22.37;62.69;97385.72;6187894;28;20233;-45
2023/07/30 11:46:56;;;;;;;2.47;1.30;;;;;;;22.31;63.14;97387.00;6192827;28;20289;-47
2023/07/30 11:49:59;;;;;;;1.20;1.10;;;;;;;22.23;63.00;97376.22;6198852;28;20241;-46
2023/07/30 11:53:01;;;;;;;2.03;1.20;;;;;;;22.29;62.73;97391.19;6196642;28;20236;-44
2023/07/30 11:56:03;;;;;;;1.30;1.20;;;;;;;22.19;63.08;97397.75;6196206;28;20273;-47
2023/07/30 11:59:07;;;;;;;1.20;1.00;;;;;;;22.12;64.18;97383.91;6193678;28;20240;-46
2023/07/30 12:02:16;;;;;;;1.50;1.40;;;;;;;22.10;64.13;97396.97;6192158;28;20235;-46
2023/07/30 12:05:19;;;;;;;1.57;1.37;;;;;;;22.12;65.32;97397.47;6193271;28;20379;-45
2023/07/30 12:08:27;;;;;;;1.30;1.20;;;;;;;22.18;63.55;97396.19;6203310;28;20727;-47
2023/07/30 12:11:29;;;;;;;1.20;1.10;;;;;;;22.09;64.25;97404.31;6194616;28;20245;-47
2023/07/30 12:14:46;;;;;;;1.30;1.20;;;;;;;22.11;65.57;97399.38;6192770;28;20718;-48
2023/07/30 12:17:49;;;;;;;1.17;1.07;;;;;;;22.59;62.68;97397.44;6182223;28;20248;-46
2023/07/30 12:20:52;;;;;;;2.07;1.20;;;;;;;22.82;60.28;97387.91;6195984;28;20243;-47
2023/07/30 12:23:55;;;;;;;1.10;1.00;;;;;;;22.86;61.49;97386.13;6197378;28;20228;-48
2023/07/30 12:26:57;;;;;;;1.13;1.03;;;;;;;23.24;59.41;97379.81;6195845;28;20232;-48
2023/07/30 12:29:59;;;;;;;0.90;0.90;;;;;;;23.17;57.65;97387.72;6197942;28;20244;-46
2023/07/30 12:33:01;;;;;;;1.10;0.90;;;;;;;23.15;59.23;97406.25;6195689;28;20237;-49
2023/07/30 12:36:04;;;;;;;0.80;0.80;;;;;;;23.13;54.38;97403.88;6191644;28;20229;-48
2023/07/30 12:39:07;;;;;;;0.60;0.60;;;;;;;23.04;55.08;97405.06;6191237;28;20282;-48
2023/07/30 12:42:10;;;;;;;0.93;0.88;;;;;;;22.75;58.45;97411.25;6192711;28;20275;-44
2023/07/30 12:45:12;;;;;;;0.70;0.70;;;;;;;22.41;63.61;97410.28;6193525;28;20224;-46
2023/07/30 12:48:14;;;;;;;1.63;0.80;;;;;;;21.74;68.37;97419.84;6177667;28;20741;-46
2023/07/30 12:51:17;;;;;;;0.80;0.80;;;;;;;21.40;71.65;97406.31;6195533;28;20240;-44
2023/07/30 12:54:19;;;;;;;0.70;0.70;;;;;;;21.23;70.91;97407.88;6191649;28;20567;-45
2023/07/30 12:57:21;;;;;;;0.60;0.60;;;;;;;21.23;71.61;97405.16;6198968;28;20244;-44
2023/07/30 13:00:24;;;;;;;0.70;0.70;;;;;;;21.24;72.93;97395.13;6192027;28;20231;-46
2023/07/30 13:03:27;;;;;;;1.17;1.07;;;;;;;21.38;73.38;97396.59;6192915;28;20228;-46
2023/07/30 13:06:30;;;;;;;0.80;0.80;;;;;;;21.34;71.07;97373.94;6193752;28;20695;-45
2023/07/30 13:09:34;;;;;;;0.90;0.90;;;;;;;21.61;69.17;97394.50;6193697;28;20236;-47
2023/07/30 13:12:36;;;;;;;1.60;0.60;;;;;;;21.58;67.73;97350.97;6192221;28;20602;-45
2023/07/30 13:15:41;;;;;;;0.90;0.70;;;;;;;22.39;58.43;97385.41;6191760;28;20234;-45
2023/07/30 13:18:44;;;;;;;0.60;0.60;;;;;;;22.53;57.75;97385.19;6193956;28;20306;-44
2023/07/30 13:21:46;;;;;;;0.67;0.63;;;;;;;22.52;58.11;97391.75;6185615;28;20231;-45
2023/07/30 13:24:49;;;;;;;0.80;0.80;;;;;;;22.77;60.07;97396.25;6172984;28;20240;-44
2023/07/30 13:27:52;;;;;;;1.00;0.70;;;;;;;22.79;62.38;97395.91;6196286;28;20228;-44
2023/07/30 13:30:56;;;;;;;1.80;0.70;;;;;;;22.78;58.47;97389.69;6191528;28;20261;-46
2023/07/30 13:33:59;;;;;;;0.85;0.70;;;;;;;22.88;58.95;97388.50;6195874;28;20233;-45
2023/07/30 13:37:02;;;;;;;0.77;0.77;;;;;;;22.77;62.53;97369.09;6196478;28;20240;-47
2023/07/30 13:40:05;;;;;;;0.90;0.90;;;;;;;22.95;59.00;97372.50;6197180;28;20221;-47
2023/07/30 13:43:08;;;;;;;2.05;0.70;;;;;;;23.28;57.87;97379.94;6196289;28;20240;-47
2023/07/30 13:46:11;;;;;;;1.67;0.88;;;;;;;23.55;54.23;97384.06;6197970;28;20713;-48
2023/07/30 13:49:14;;;;;;;1.38;0.90;;;;;;;23.75;54.47;97372.38;6203492;28;20239;-46
2023/07/30 13:52:17;;;;;;;1.30;0.90;;;;;;;23.62;53.60;97362.53;6196127;28;20327;-48
2023/07/30 13:55:20;;;;;;;1.05;0.88;;;;;;;23.58;55.44;97364.34;6196393;28;20239;-47
2023/07/30 13:58:23;;;;;;;0.98;0.80;;;;;;;23.60;53.81;97373.75;6198233;28;20252;-47
2023/07/30 14:01:27;;;;;;;1.45;1.00;;;;;;;23.55;55.08;97359.59;6197677;28;20229;-48
2023/07/30 14:04:31;;;;;;;1.08;0.88;;;;;;;23.54;54.54;97355.25;6196212;28;20256;-46
2023/07/30 14:07:34;;;;;;;1.00;1.00;;;;;;;23.67;54.59;97346.84;6196549;28;20232;-45
2023/07/30 14:10:37;;;;;;;1.48;1.15;;;;;;;23.61;56.70;97325.59;6195522;28;20642;-45
2023/07/30 14:13:39;;;;;;;1.08;0.98;;;;;;;23.81;57.65;97348.47;6195777;28;20280;-47
2023/07/30 14:16:42;;;;;;;1.10;1.00;;;;;;;23.79;57.33;97353.44;6198418;28;20407;-47
2023/07/30 14:19:49;;;;;;;1.27;1.17;;;;;;;23.70;58.06;97361.72;6195845;28;20228;-44
2023/07/30 14:22:53;;;;;;;0.88;0.88;;;;;;;23.47;59.42;97360.44;6196204;28;20736;-45